sensor_id;sensor_type;location;lat;lon;timestamp;P1;durP1;ratioP1;P2;durP2;ratioP2
568;SDS011;269;48.884;9.192;2022-08-19T00:02:02;15.40;;;14.20;;
568;SDS011;269;48.884;9.192;2022-08-19T00:04:31;16.03;;;14.73;;
568;SDS011;269;48.884;9.192;2022-08-19T00:07:02;15.97;;;14.67;;
568;SDS011;269;48.884;9.192;2022-08-19T00:09:30;16.17;;;14.97;;
568;SDS011;269;48.884;9.192;2022-08-19T00:11:59;16.33;;;14.93;;
568;SDS011;269;48.884;9.192;2022-08-19T00:14:26;16.53;;;15.23;;
568;SDS011;269;48.884;9.192;2022-08-19T00:16:57;16.20;;;14.90;;
568;SDS011;269;48.884;9.192;2022-08-19T00:19:24;16.60;;;15.30;;
568;SDS011;269;48.884;9.192;2022-08-19T00:21:51;13.83;;;12.90;;
568;SDS011;269;48.884;9.192;2022-08-19T00:24:19;15.40;;;13.90;;
568;SDS011;269;48.884;9.192;2022-08-19T00:26:47;15.83;;;14.63;;
568;SDS011;269;48.884;9.192;2022-08-19T00:29:19;15.90;;;14.70;;
568;SDS011;269;48.884;9.192;2022-08-19T00:31:47;16.37;;;15.07;;
568;SDS011;269;48.884;9.192;2022-08-19T00:34:15;15.70;;;14.50;;
568;SDS011;269;48.884;9.192;2022-08-19T00:36:42;16.67;;;15.10;;
568;SDS011;269;48.884;9.192;2022-08-19T00:39:10;14.03;;;12.93;;
568;SDS011;269;48.884;9.192;2022-08-19T00:41:37;16.00;;;14.60;;
568;SDS011;269;48.884;9.192;2022-08-19T00:44:05;16.43;;;15.23;;
568;SDS011;269;48.884;9.192;2022-08-19T00:46:36;15.93;;;14.73;;
568;SDS011;269;48.884;9.192;2022-08-19T00:49:06;16.50;;;15.10;;
568;SDS011;269;48.884;9.192;2022-08-19T00:51:36;14.93;;;13.83;;
568;SDS011;269;48.884;9.192;2022-08-19T00:54:03;16.17;;;14.87;;
568;SDS011;269;48.884;9.192;2022-08-19T00:56:31;16.80;;;15.20;;
568;SDS011;269;48.884;9.192;2022-08-19T00:58:58;15.20;;;14.00;;
568;SDS011;269;48.884;9.192;2022-08-19T01:01:27;15.50;;;14.17;;
568;SDS011;269;48.884;9.192;2022-08-19T01:03:55;15.23;;;13.93;;
568;SDS011;269;48.884;9.192;2022-08-19T01:06:22;15.67;;;14.37;;
568;SDS011;269;48.884;9.192;2022-08-19T01:08:49;16.23;;;14.87;;
568;SDS011;269;48.884;9.192;2022-08-19T01:11:16;15.77;;;14.53;;
568;SDS011;269;48.884;9.192;2022-08-19T01:13:43;16.40;;;14.90;;
568;SDS011;269;48.884;9.192;2022-08-19T01:16:12;15.10;;;13.90;;
568;SDS011;269;48.884;9.192;2022-08-19T01:18:41;16.40;;;15.17;;
568;SDS011;269;48.884;9.192;2022-08-19T01:21:12;16.00;;;14.70;;
568;SDS011;269;48.884;9.192;2022-08-19T01:23:45;15.53;;;14.23;;
568;SDS011;269;48.884;9.192;2022-08-19T01:26:14;16.90;;;15.47;;
568;SDS011;269;48.884;9.192;2022-08-19T01:28:43;16.33;;;14.97;;
568;SDS011;269;48.884;9.192;2022-08-19T01:31:12;17.43;;;15.93;;
568;SDS011;269;48.884;9.192;2022-08-19T01:33:41;15.50;;;14.30;;
568;SDS011;269;48.884;9.192;2022-08-19T01:36:09;17.17;;;15.67;;
568;SDS011;269;48.884;9.192;2022-08-19T01:38:40;16.67;;;15.27;;
568;SDS011;269;48.884;9.192;2022-08-19T01:41:10;17.10;;;15.60;;
568;SDS011;269;48.884;9.192;2022-08-19T01:43:38;17.50;;;15.80;;
568;SDS011;269;48.884;9.192;2022-08-19T01:46:06;17.27;;;15.87;;
568;SDS011;269;48.884;9.192;2022-08-19T01:48:34;16.90;;;15.50;;
568;SDS011;269;48.884;9.192;2022-08-19T01:51:02;17.17;;;15.77;;
568;SDS011;269;48.884;9.192;2022-08-19T01:53:30;18.47;;;16.70;;
568;SDS011;269;48.884;9.192;2022-08-19T01:55:57;17.57;;;16.17;;
568;SDS011;269;48.884;9.192;2022-08-19T01:58:27;15.47;;;14.27;;
568;SDS011;269;48.884;9.192;2022-08-19T02:00:57;18.77;;;17.17;;
568;SDS011;269;48.884;9.192;2022-08-19T02:03:25;17.73;;;16.30;;
568;SDS011;269;48.884;9.192;2022-08-19T02:05:55;21.03;;;19.33;;
568;SDS011;269;48.884;9.192;2022-08-19T02:08:25;18.20;;;16.60;;
568;SDS011;269;48.884;9.192;2022-08-19T02:10:52;17.37;;;15.97;;
568;SDS011;269;48.884;9.192;2022-08-19T02:13:19;18.90;;;17.23;;
568;SDS011;269;48.884;9.192;2022-08-19T02:15:48;18.50;;;17.00;;
568;SDS011;269;48.884;9.192;2022-08-19T02:18:15;19.07;;;17.37;;
568;SDS011;269;48.884;9.192;2022-08-19T02:20:43;17.63;;;16.13;;
568;SDS011;269;48.884;9.192;2022-08-19T02:23:12;19.00;;;17.20;;
568;SDS011;269;48.884;9.192;2022-08-19T02:25:40;19.83;;;18.17;;
568;SDS011;269;48.884;9.192;2022-08-19T02:28:08;20.93;;;19.23;;
568;SDS011;269;48.884;9.192;2022-08-19T02:30:35;19.03;;;17.33;;
568;SDS011;269;48.884;9.192;2022-08-19T02:33:03;18.53;;;17.03;;
568;SDS011;269;48.884;9.192;2022-08-19T02:35:30;20.13;;;18.47;;
568;SDS011;269;48.884;9.192;2022-08-19T02:37:58;20.03;;;18.43;;
568;SDS011;269;48.884;9.192;2022-08-19T02:40:47;20.40;;;18.63;;
568;SDS011;269;48.884;9.192;2022-08-19T02:43:17;20.37;;;18.57;;
568;SDS011;269;48.884;9.192;2022-08-19T02:45:45;20.13;;;18.43;;
568;SDS011;269;48.884;9.192;2022-08-19T02:48:15;20.40;;;18.50;;
568;SDS011;269;48.884;9.192;2022-08-19T02:50:43;21.07;;;19.27;;
568;SDS011;269;48.884;9.192;2022-08-19T02:53:11;21.87;;;19.93;;
568;SDS011;269;48.884;9.192;2022-08-19T02:55:42;22.70;;;20.77;;
568;SDS011;269;48.884;9.192;2022-08-19T02:58:10;22.87;;;20.77;;
568;SDS011;269;48.884;9.192;2022-08-19T03:00:40;22.00;;;20.10;;
568;SDS011;269;48.884;9.192;2022-08-19T03:03:09;23.40;;;21.37;;
568;SDS011;269;48.884;9.192;2022-08-19T03:05:38;23.60;;;21.70;;
568;SDS011;269;48.884;9.192;2022-08-19T03:08:05;23.83;;;21.73;;
568;SDS011;269;48.884;9.192;2022-08-19T03:10:33;23.37;;;21.37;;
568;SDS011;269;48.884;9.192;2022-08-19T03:13:09;23.10;;;21.00;;
568;SDS011;269;48.884;9.192;2022-08-19T03:15:39;22.93;;;21.03;;
568;SDS011;269;48.884;9.192;2022-08-19T03:18:08;24.23;;;22.10;;
568;SDS011;269;48.884;9.192;2022-08-19T03:20:40;24.53;;;22.37;;
568;SDS011;269;48.884;9.192;2022-08-19T03:23:09;28.60;;;26.00;;
568;SDS011;269;48.884;9.192;2022-08-19T03:25:38;24.07;;;21.97;;
568;SDS011;269;48.884;9.192;2022-08-19T03:28:08;23.50;;;21.60;;
568;SDS011;269;48.884;9.192;2022-08-19T03:30:37;24.53;;;22.53;;
568;SDS011;269;48.884;9.192;2022-08-19T03:33:05;26.20;;;23.80;;
568;SDS011;269;48.884;9.192;2022-08-19T03:35:32;24.77;;;22.67;;
568;SDS011;269;48.884;9.192;2022-08-19T03:38:03;25.57;;;23.30;;
568;SDS011;269;48.884;9.192;2022-08-19T03:40:30;26.20;;;23.93;;
568;SDS011;269;48.884;9.192;2022-08-19T03:43:00;24.17;;;22.27;;
568;SDS011;269;48.884;9.192;2022-08-19T03:45:27;27.07;;;24.77;;
568;SDS011;269;48.884;9.192;2022-08-19T03:47:54;26.27;;;24.03;;
568;SDS011;269;48.884;9.192;2022-08-19T03:50:22;26.00;;;23.70;;
568;SDS011;269;48.884;9.192;2022-08-19T03:52:50;25.13;;;23.03;;
568;SDS011;269;48.884;9.192;2022-08-19T03:55:19;26.63;;;24.43;;
568;SDS011;269;48.884;9.192;2022-08-19T03:57:46;26.67;;;24.47;;
568;SDS011;269;48.884;9.192;2022-08-19T04:00:14;26.43;;;24.23;;
568;SDS011;269;48.884;9.192;2022-08-19T04:02:42;27.53;;;25.23;;
568;SDS011;269;48.884;9.192;2022-08-19T04:05:09;26.30;;;23.97;;
568;SDS011;269;48.884;9.192;2022-08-19T04:07:36;24.93;;;22.70;;
568;SDS011;269;48.884;9.192;2022-08-19T04:10:03;27.20;;;25.00;;
568;SDS011;269;48.884;9.192;2022-08-19T04:12:32;25.30;;;23.20;;
568;SDS011;269;48.884;9.192;2022-08-19T04:14:59;27.70;;;25.10;;
568;SDS011;269;48.884;9.192;2022-08-19T04:17:26;25.17;;;22.97;;
568;SDS011;269;48.884;9.192;2022-08-19T04:19:53;25.57;;;23.37;;
568;SDS011;269;48.884;9.192;2022-08-19T04:22:20;27.67;;;25.27;;
568;SDS011;269;48.884;9.192;2022-08-19T04:24:48;26.03;;;23.83;;
568;SDS011;269;48.884;9.192;2022-08-19T04:27:15;25.70;;;23.50;;
568;SDS011;269;48.884;9.192;2022-08-19T04:29:44;26.60;;;24.20;;
568;SDS011;269;48.884;9.192;2022-08-19T04:32:11;26.33;;;24.20;;
568;SDS011;269;48.884;9.192;2022-08-19T04:34:40;26.37;;;24.17;;
568;SDS011;269;48.884;9.192;2022-08-19T04:37:08;27.33;;;25.03;;
568;SDS011;269;48.884;9.192;2022-08-19T04:39:37;27.43;;;25.07;;
568;SDS011;269;48.884;9.192;2022-08-19T04:42:22;26.33;;;24.33;;
568;SDS011;269;48.884;9.192;2022-08-19T04:45:07;25.60;;;23.57;;
568;SDS011;269;48.884;9.192;2022-08-19T04:47:36;26.50;;;24.23;;
568;SDS011;269;48.884;9.192;2022-08-19T04:50:03;26.93;;;24.70;;
568;SDS011;269;48.884;9.192;2022-08-19T04:52:31;25.33;;;23.27;;
568;SDS011;269;48.884;9.192;2022-08-19T04:54:58;28.03;;;25.73;;
568;SDS011;269;48.884;9.192;2022-08-19T04:57:25;26.80;;;24.40;;
568;SDS011;269;48.884;9.192;2022-08-19T04:59:53;27.13;;;24.83;;
568;SDS011;269;48.884;9.192;2022-08-19T05:02:22;27.07;;;24.63;;
568;SDS011;269;48.884;9.192;2022-08-19T05:04:50;26.23;;;24.03;;
568;SDS011;269;48.884;9.192;2022-08-19T05:07:17;26.07;;;23.87;;
568;SDS011;269;48.884;9.192;2022-08-19T05:09:44;25.80;;;23.70;;
568;SDS011;269;48.884;9.192;2022-08-19T05:12:12;25.53;;;23.40;;
568;SDS011;269;48.884;9.192;2022-08-19T05:14:39;25.27;;;23.17;;
568;SDS011;269;48.884;9.192;2022-08-19T05:17:06;27.20;;;24.90;;
568;SDS011;269;48.884;9.192;2022-08-19T05:19:34;27.97;;;25.57;;
568;SDS011;269;48.884;9.192;2022-08-19T05:22:19;24.23;;;22.13;;
568;SDS011;269;48.884;9.192;2022-08-19T05:25:02;26.80;;;24.10;;
568;SDS011;269;48.884;9.192;2022-08-19T05:27:31;25.93;;;23.70;;
568;SDS011;269;48.884;9.192;2022-08-19T05:29:58;26.40;;;24.30;;
568;SDS011;269;48.884;9.192;2022-08-19T05:32:25;27.00;;;24.90;;
568;SDS011;269;48.884;9.192;2022-08-19T05:34:54;27.50;;;24.90;;
568;SDS011;269;48.884;9.192;2022-08-19T05:37:21;27.30;;;25.00;;
568;SDS011;269;48.884;9.192;2022-08-19T05:39:48;27.27;;;25.17;;
568;SDS011;269;48.884;9.192;2022-08-19T05:42:15;26.73;;;24.37;;
568;SDS011;269;48.884;9.192;2022-08-19T05:44:45;26.60;;;24.50;;
568;SDS011;269;48.884;9.192;2022-08-19T05:47:14;27.63;;;25.00;;
568;SDS011;269;48.884;9.192;2022-08-19T05:49:44;26.83;;;24.73;;
568;SDS011;269;48.884;9.192;2022-08-19T05:52:13;26.67;;;24.37;;
568;SDS011;269;48.884;9.192;2022-08-19T05:54:42;28.17;;;25.57;;
568;SDS011;269;48.884;9.192;2022-08-19T05:57:10;27.93;;;25.53;;
568;SDS011;269;48.884;9.192;2022-08-19T05:59:37;26.33;;;24.20;;
568;SDS011;269;48.884;9.192;2022-08-19T06:02:05;27.27;;;24.93;;
568;SDS011;269;48.884;9.192;2022-08-19T06:04:33;26.60;;;24.40;;
568;SDS011;269;48.884;9.192;2022-08-19T06:07:00;26.90;;;24.80;;
568;SDS011;269;48.884;9.192;2022-08-19T06:09:29;28.00;;;25.73;;
568;SDS011;269;48.884;9.192;2022-08-19T06:11:57;26.53;;;24.23;;
568;SDS011;269;48.884;9.192;2022-08-19T06:14:26;26.83;;;24.60;;
568;SDS011;269;48.884;9.192;2022-08-19T06:16:54;26.70;;;24.60;;
568;SDS011;269;48.884;9.192;2022-08-19T06:19:22;26.97;;;24.67;;
568;SDS011;269;48.884;9.192;2022-08-19T06:21:51;25.80;;;23.43;;
568;SDS011;269;48.884;9.192;2022-08-19T06:24:20;26.73;;;24.50;;
568;SDS011;269;48.884;9.192;2022-08-19T06:26:51;25.80;;;23.80;;
568;SDS011;269;48.884;9.192;2022-08-19T06:29:21;28.07;;;25.90;;
568;SDS011;269;48.884;9.192;2022-08-19T06:31:50;26.53;;;24.30;;
568;SDS011;269;48.884;9.192;2022-08-19T06:34:19;26.87;;;24.67;;
568;SDS011;269;48.884;9.192;2022-08-19T06:36:47;25.27;;;23.30;;
568;SDS011;269;48.884;9.192;2022-08-19T06:39:16;26.03;;;23.93;;
568;SDS011;269;48.884;9.192;2022-08-19T06:41:45;24.87;;;22.97;;
568;SDS011;269;48.884;9.192;2022-08-19T06:44:17;27.37;;;24.97;;
568;SDS011;269;48.884;9.192;2022-08-19T06:46:45;25.37;;;23.23;;
568;SDS011;269;48.884;9.192;2022-08-19T06:49:12;25.30;;;23.40;;
568;SDS011;269;48.884;9.192;2022-08-19T06:51:40;25.20;;;23.10;;
568;SDS011;269;48.884;9.192;2022-08-19T06:54:08;27.87;;;25.57;;
568;SDS011;269;48.884;9.192;2022-08-19T06:56:36;26.70;;;24.43;;
568;SDS011;269;48.884;9.192;2022-08-19T06:59:04;26.17;;;24.03;;
568;SDS011;269;48.884;9.192;2022-08-19T07:01:35;25.80;;;23.70;;
568;SDS011;269;48.884;9.192;2022-08-19T07:04:04;26.13;;;23.90;;
568;SDS011;269;48.884;9.192;2022-08-19T07:06:32;25.00;;;23.00;;
568;SDS011;269;48.884;9.192;2022-08-19T07:08:59;25.57;;;23.47;;
568;SDS011;269;48.884;9.192;2022-08-19T07:11:26;24.47;;;22.57;;
568;SDS011;269;48.884;9.192;2022-08-19T07:13:54;24.70;;;22.77;;
568;SDS011;269;48.884;9.192;2022-08-19T07:16:21;25.20;;;23.30;;
568;SDS011;269;48.884;9.192;2022-08-19T07:18:50;23.70;;;21.80;;
568;SDS011;269;48.884;9.192;2022-08-19T07:21:18;23.93;;;21.93;;
568;SDS011;269;48.884;9.192;2022-08-19T07:23:47;23.10;;;21.20;;
568;SDS011;269;48.884;9.192;2022-08-19T07:26:16;24.07;;;21.97;;
568;SDS011;269;48.884;9.192;2022-08-19T07:28:45;23.00;;;21.23;;
568;SDS011;269;48.884;9.192;2022-08-19T07:31:14;23.27;;;21.33;;
568;SDS011;269;48.884;9.192;2022-08-19T07:33:43;22.03;;;20.03;;
568;SDS011;269;48.884;9.192;2022-08-19T07:36:13;21.90;;;20.00;;
568;SDS011;269;48.884;9.192;2022-08-19T07:38:44;22.80;;;21.00;;
568;SDS011;269;48.884;9.192;2022-08-19T07:41:15;23.70;;;21.57;;
568;SDS011;269;48.884;9.192;2022-08-19T07:43:44;22.40;;;20.60;;
568;SDS011;269;48.884;9.192;2022-08-19T07:46:12;21.03;;;19.43;;
568;SDS011;269;48.884;9.192;2022-08-19T07:48:40;22.17;;;20.50;;
568;SDS011;269;48.884;9.192;2022-08-19T07:51:13;21.73;;;20.00;;
568;SDS011;269;48.884;9.192;2022-08-19T07:53:43;22.00;;;20.10;;
568;SDS011;269;48.884;9.192;2022-08-19T07:56:11;22.10;;;20.33;;
568;SDS011;269;48.884;9.192;2022-08-19T07:58:40;21.07;;;19.07;;
568;SDS011;269;48.884;9.192;2022-08-19T08:01:09;22.57;;;20.73;;
568;SDS011;269;48.884;9.192;2022-08-19T08:03:40;22.37;;;20.50;;
568;SDS011;269;48.884;9.192;2022-08-19T08:06:27;22.30;;;20.60;;
568;SDS011;269;48.884;9.192;2022-08-19T08:09:12;21.30;;;19.70;;
568;SDS011;269;48.884;9.192;2022-08-19T08:11:48;21.00;;;19.40;;
568;SDS011;269;48.884;9.192;2022-08-19T08:14:18;21.70;;;20.00;;
568;SDS011;269;48.884;9.192;2022-08-19T08:16:48;20.10;;;18.50;;
568;SDS011;269;48.884;9.192;2022-08-19T08:19:17;19.97;;;18.37;;
568;SDS011;269;48.884;9.192;2022-08-19T08:21:46;20.40;;;18.70;;
568;SDS011;269;48.884;9.192;2022-08-19T08:24:14;21.43;;;19.60;;
568;SDS011;269;48.884;9.192;2022-08-19T08:26:41;20.77;;;18.80;;
568;SDS011;269;48.884;9.192;2022-08-19T08:29:09;20.27;;;18.57;;
568;SDS011;269;48.884;9.192;2022-08-19T08:31:38;20.60;;;18.93;;
568;SDS011;269;48.884;9.192;2022-08-19T08:34:06;19.53;;;17.97;;
568;SDS011;269;48.884;9.192;2022-08-19T08:36:35;20.10;;;18.33;;
568;SDS011;269;48.884;9.192;2022-08-19T08:39:07;19.83;;;18.13;;
568;SDS011;269;48.884;9.192;2022-08-19T08:41:35;20.03;;;18.43;;
568;SDS011;269;48.884;9.192;2022-08-19T08:44:10;19.77;;;17.87;;
568;SDS011;269;48.884;9.192;2022-08-19T08:46:41;20.77;;;19.07;;
568;SDS011;269;48.884;9.192;2022-08-19T08:49:16;20.17;;;18.53;;
568;SDS011;269;48.884;9.192;2022-08-19T08:51:52;18.93;;;17.43;;
568;SDS011;269;48.884;9.192;2022-08-19T08:54:29;18.90;;;17.30;;
568;SDS011;269;48.884;9.192;2022-08-19T08:56:59;18.90;;;17.30;;
568;SDS011;269;48.884;9.192;2022-08-19T08:59:28;20.30;;;18.57;;
568;SDS011;269;48.884;9.192;2022-08-19T09:01:58;19.10;;;17.70;;
568;SDS011;269;48.884;9.192;2022-08-19T09:04:26;20.00;;;18.37;;
568;SDS011;269;48.884;9.192;2022-08-19T09:06:55;18.40;;;17.00;;
568;SDS011;269;48.884;9.192;2022-08-19T09:09:32;18.60;;;17.13;;
568;SDS011;269;48.884;9.192;2022-08-19T09:12:06;18.10;;;16.70;;
568;SDS011;269;48.884;9.192;2022-08-19T09:14:43;18.37;;;16.60;;
568;SDS011;269;48.884;9.192;2022-08-19T09:17:14;18.23;;;16.67;;
568;SDS011;269;48.884;9.192;2022-08-19T09:19:49;17.50;;;16.10;;
568;SDS011;269;48.884;9.192;2022-08-19T09:22:18;16.77;;;15.37;;
568;SDS011;269;48.884;9.192;2022-08-19T09:24:49;18.00;;;16.50;;
568;SDS011;269;48.884;9.192;2022-08-19T09:27:17;17.37;;;15.90;;
568;SDS011;269;48.884;9.192;2022-08-19T09:29:45;17.40;;;15.90;;
568;SDS011;269;48.884;9.192;2022-08-19T09:32:13;16.73;;;15.30;;
568;SDS011;269;48.884;9.192;2022-08-19T09:34:41;16.67;;;15.40;;
568;SDS011;269;48.884;9.192;2022-08-19T09:37:08;16.87;;;15.37;;
568;SDS011;269;48.884;9.192;2022-08-19T09:39:36;16.37;;;15.07;;
568;SDS011;269;48.884;9.192;2022-08-19T09:42:05;18.17;;;16.47;;
568;SDS011;269;48.884;9.192;2022-08-19T09:44:37;16.60;;;15.23;;
568;SDS011;269;48.884;9.192;2022-08-19T09:47:04;16.40;;;15.10;;
568;SDS011;269;48.884;9.192;2022-08-19T09:49:32;15.50;;;14.40;;
568;SDS011;269;48.884;9.192;2022-08-19T09:52:00;15.03;;;13.90;;
568;SDS011;269;48.884;9.192;2022-08-19T09:54:27;17.37;;;16.03;;
568;SDS011;269;48.884;9.192;2022-08-19T09:56:54;15.80;;;14.40;;
568;SDS011;269;48.884;9.192;2022-08-19T09:59:23;16.60;;;15.23;;
568;SDS011;269;48.884;9.192;2022-08-19T10:01:50;14.13;;;13.00;;
568;SDS011;269;48.884;9.192;2022-08-19T10:04:17;14.50;;;13.50;;
568;SDS011;269;48.884;9.192;2022-08-19T10:06:45;16.10;;;14.90;;
568;SDS011;269;48.884;9.192;2022-08-19T10:09:13;16.27;;;15.07;;
568;SDS011;269;48.884;9.192;2022-08-19T10:11:42;15.30;;;14.10;;
568;SDS011;269;48.884;9.192;2022-08-19T10:14:11;14.93;;;13.60;;
568;SDS011;269;48.884;9.192;2022-08-19T10:16:40;15.20;;;14.00;;
568;SDS011;269;48.884;9.192;2022-08-19T10:19:07;14.63;;;13.43;;
568;SDS011;269;48.884;9.192;2022-08-19T10:21:35;14.67;;;13.67;;
568;SDS011;269;48.884;9.192;2022-08-19T10:24:04;15.33;;;14.03;;
568;SDS011;269;48.884;9.192;2022-08-19T10:26:32;14.97;;;13.70;;
568;SDS011;269;48.884;9.192;2022-08-19T10:29:01;14.63;;;13.40;;
568;SDS011;269;48.884;9.192;2022-08-19T10:31:31;14.33;;;13.23;;
568;SDS011;269;48.884;9.192;2022-08-19T10:34:00;14.47;;;13.40;;
568;SDS011;269;48.884;9.192;2022-08-19T10:36:28;14.10;;;12.80;;
568;SDS011;269;48.884;9.192;2022-08-19T10:38:59;12.20;;;11.30;;
568;SDS011;269;48.884;9.192;2022-08-19T10:41:30;12.43;;;11.50;;
568;SDS011;269;48.884;9.192;2022-08-19T10:44:00;11.30;;;10.30;;
568;SDS011;269;48.884;9.192;2022-08-19T10:46:28;11.20;;;10.30;;
568;SDS011;269;48.884;9.192;2022-08-19T10:48:57;10.37;;;9.57;;
568;SDS011;269;48.884;9.192;2022-08-19T10:51:27;9.30;;;8.57;;
568;SDS011;269;48.884;9.192;2022-08-19T10:54:12;9.20;;;8.50;;
568;SDS011;269;48.884;9.192;2022-08-19T10:56:39;10.27;;;9.37;;
568;SDS011;269;48.884;9.192;2022-08-19T10:59:18;9.33;;;8.60;;
568;SDS011;269;48.884;9.192;2022-08-19T11:01:47;10.03;;;9.13;;
568;SDS011;269;48.884;9.192;2022-08-19T11:04:14;9.03;;;8.33;;
568;SDS011;269;48.884;9.192;2022-08-19T11:06:44;9.90;;;9.20;;
568;SDS011;269;48.884;9.192;2022-08-19T11:09:13;9.40;;;8.70;;
568;SDS011;269;48.884;9.192;2022-08-19T11:11:40;9.27;;;8.63;;
568;SDS011;269;48.884;9.192;2022-08-19T11:14:09;8.60;;;7.90;;
568;SDS011;269;48.884;9.192;2022-08-19T11:16:37;8.70;;;8.00;;
568;SDS011;269;48.884;9.192;2022-08-19T11:19:05;8.50;;;7.83;;
568;SDS011;269;48.884;9.192;2022-08-19T11:21:34;8.90;;;8.10;;
568;SDS011;269;48.884;9.192;2022-08-19T11:24:06;9.10;;;8.50;;
568;SDS011;269;48.884;9.192;2022-08-19T11:26:41;10.80;;;10.00;;
568;SDS011;269;48.884;9.192;2022-08-19T11:29:10;9.27;;;8.60;;
568;SDS011;269;48.884;9.192;2022-08-19T11:31:39;9.80;;;8.90;;
568;SDS011;269;48.884;9.192;2022-08-19T11:34:10;9.57;;;8.77;;
568;SDS011;269;48.884;9.192;2022-08-19T11:36:40;9.40;;;8.70;;
568;SDS011;269;48.884;9.192;2022-08-19T11:39:12;9.10;;;8.30;;
568;SDS011;269;48.884;9.192;2022-08-19T11:41:40;8.27;;;7.57;;
568;SDS011;269;48.884;9.192;2022-08-19T11:44:07;9.10;;;8.33;;
568;SDS011;269;48.884;9.192;2022-08-19T11:46:35;8.20;;;7.60;;
568;SDS011;269;48.884;9.192;2022-08-19T11:49:03;9.40;;;8.70;;
568;SDS011;269;48.884;9.192;2022-08-19T11:51:32;9.93;;;9.13;;
568;SDS011;269;48.884;9.192;2022-08-19T11:54:00;8.80;;;8.00;;
568;SDS011;269;48.884;9.192;2022-08-19T11:56:29;11.70;;;10.10;;
568;SDS011;269;48.884;9.192;2022-08-19T11:58:56;11.20;;;8.80;;
568;SDS011;269;48.884;9.192;2022-08-19T12:01:24;10.10;;;9.20;;
568;SDS011;269;48.884;9.192;2022-08-19T12:03:55;10.43;;;9.73;;
568;SDS011;269;48.884;9.192;2022-08-19T12:06:24;9.37;;;8.67;;
568;SDS011;269;48.884;9.192;2022-08-19T12:08:54;9.43;;;8.83;;
568;SDS011;269;48.884;9.192;2022-08-19T12:11:22;9.93;;;9.23;;
568;SDS011;269;48.884;9.192;2022-08-19T12:13:51;11.40;;;10.50;;
568;SDS011;269;48.884;9.192;2022-08-19T12:16:21;10.70;;;9.80;;
568;SDS011;269;48.884;9.192;2022-08-19T12:18:53;10.00;;;9.30;;
568;SDS011;269;48.884;9.192;2022-08-19T12:21:22;10.70;;;9.90;;
568;SDS011;269;48.884;9.192;2022-08-19T12:23:54;10.20;;;9.50;;
568;SDS011;269;48.884;9.192;2022-08-19T12:26:23;10.83;;;10.03;;
568;SDS011;269;48.884;9.192;2022-08-19T12:28:52;9.57;;;8.80;;
568;SDS011;269;48.884;9.192;2022-08-19T12:31:20;9.40;;;8.60;;
568;SDS011;269;48.884;9.192;2022-08-19T12:33:47;9.07;;;8.47;;
568;SDS011;269;48.884;9.192;2022-08-19T12:36:14;9.33;;;8.63;;
568;SDS011;269;48.884;9.192;2022-08-19T12:38:43;9.00;;;8.40;;
568;SDS011;269;48.884;9.192;2022-08-19T12:41:12;8.80;;;8.10;;
568;SDS011;269;48.884;9.192;2022-08-19T12:43:43;8.13;;;7.50;;
568;SDS011;269;48.884;9.192;2022-08-19T12:46:12;8.70;;;7.97;;
568;SDS011;269;48.884;9.192;2022-08-19T12:48:39;8.10;;;7.50;;
568;SDS011;269;48.884;9.192;2022-08-19T12:51:10;8.70;;;8.10;;
568;SDS011;269;48.884;9.192;2022-08-19T12:53:38;7.97;;;7.27;;
568;SDS011;269;48.884;9.192;2022-08-19T12:56:06;8.20;;;7.60;;
568;SDS011;269;48.884;9.192;2022-08-19T12:58:34;8.30;;;7.70;;
568;SDS011;269;48.884;9.192;2022-08-19T13:01:05;8.40;;;7.80;;
568;SDS011;269;48.884;9.192;2022-08-19T13:03:34;8.30;;;7.60;;
568;SDS011;269;48.884;9.192;2022-08-19T13:06:02;7.13;;;6.53;;
568;SDS011;269;48.884;9.192;2022-08-19T13:08:29;8.30;;;7.67;;
568;SDS011;269;48.884;9.192;2022-08-19T13:10:57;7.43;;;6.93;;
568;SDS011;269;48.884;9.192;2022-08-19T13:13:32;7.23;;;6.63;;
568;SDS011;269;48.884;9.192;2022-08-19T13:16:00;7.30;;;6.70;;
568;SDS011;269;48.884;9.192;2022-08-19T13:18:28;6.77;;;6.27;;
568;SDS011;269;48.884;9.192;2022-08-19T13:21:01;6.40;;;6.00;;
568;SDS011;269;48.884;9.192;2022-08-19T13:23:29;6.47;;;6.07;;
568;SDS011;269;48.884;9.192;2022-08-19T13:25:57;7.63;;;7.03;;
568;SDS011;269;48.884;9.192;2022-08-19T13:28:24;7.13;;;6.70;;
568;SDS011;269;48.884;9.192;2022-08-19T13:30:51;6.80;;;6.30;;
568;SDS011;269;48.884;9.192;2022-08-19T13:33:36;7.30;;;6.70;;
568;SDS011;269;48.884;9.192;2022-08-19T13:36:04;7.70;;;7.07;;
568;SDS011;269;48.884;9.192;2022-08-19T13:38:32;7.53;;;6.93;;
568;SDS011;269;48.884;9.192;2022-08-19T13:41:04;7.40;;;6.90;;
568;SDS011;269;48.884;9.192;2022-08-19T13:43:32;8.17;;;7.47;;
568;SDS011;269;48.884;9.192;2022-08-19T13:45:59;12.40;;;11.50;;
568;SDS011;269;48.884;9.192;2022-08-19T13:48:34;17.27;;;15.87;;
568;SDS011;269;48.884;9.192;2022-08-19T13:51:01;21.17;;;19.27;;
568;SDS011;269;48.884;9.192;2022-08-19T13:53:35;21.80;;;20.10;;
568;SDS011;269;48.884;9.192;2022-08-19T13:56:04;26.17;;;23.97;;
568;SDS011;269;48.884;9.192;2022-08-19T13:58:33;25.47;;;23.37;;
568;SDS011;269;48.884;9.192;2022-08-19T14:01:00;27.50;;;25.20;;
568;SDS011;269;48.884;9.192;2022-08-19T14:03:27;25.07;;;23.07;;
568;SDS011;269;48.884;9.192;2022-08-19T14:05:54;28.13;;;25.77;;
568;SDS011;269;48.884;9.192;2022-08-19T14:08:23;29.03;;;26.43;;
568;SDS011;269;48.884;9.192;2022-08-19T14:10:50;32.00;;;29.30;;
568;SDS011;269;48.884;9.192;2022-08-19T14:13:18;30.90;;;28.20;;
568;SDS011;269;48.884;9.192;2022-08-19T14:15:47;30.20;;;27.70;;
568;SDS011;269;48.884;9.192;2022-08-19T14:18:14;30.07;;;27.60;;
568;SDS011;269;48.884;9.192;2022-08-19T14:20:41;30.53;;;27.90;;
568;SDS011;269;48.884;9.192;2022-08-19T14:23:09;31.47;;;28.83;;
568;SDS011;269;48.884;9.192;2022-08-19T14:25:38;30.93;;;28.37;;
568;SDS011;269;48.884;9.192;2022-08-19T14:28:05;30.70;;;28.20;;
568;SDS011;269;48.884;9.192;2022-08-19T14:30:33;32.03;;;29.43;;
568;SDS011;269;48.884;9.192;2022-08-19T14:33:03;30.50;;;28.07;;
568;SDS011;269;48.884;9.192;2022-08-19T14:35:32;29.77;;;27.27;;
568;SDS011;269;48.884;9.192;2022-08-19T14:37:59;31.67;;;29.00;;
568;SDS011;269;48.884;9.192;2022-08-19T14:40:28;31.93;;;29.13;;
568;SDS011;269;48.884;9.192;2022-08-19T14:42:58;31.53;;;28.63;;
568;SDS011;269;48.884;9.192;2022-08-19T14:45:30;31.67;;;28.87;;
568;SDS011;269;48.884;9.192;2022-08-19T14:47:58;31.20;;;28.57;;
568;SDS011;269;48.884;9.192;2022-08-19T14:50:25;33.60;;;30.80;;
568;SDS011;269;48.884;9.192;2022-08-19T14:52:57;32.93;;;30.10;;
568;SDS011;269;48.884;9.192;2022-08-19T14:55:26;34.63;;;31.63;;
568;SDS011;269;48.884;9.192;2022-08-19T14:57:53;30.47;;;27.87;;
568;SDS011;269;48.884;9.192;2022-08-19T15:00:21;31.77;;;28.87;;
568;SDS011;269;48.884;9.192;2022-08-19T15:02:49;31.33;;;28.73;;
568;SDS011;269;48.884;9.192;2022-08-19T15:05:16;31.43;;;28.73;;
568;SDS011;269;48.884;9.192;2022-08-19T15:07:44;31.60;;;29.00;;
568;SDS011;269;48.884;9.192;2022-08-19T15:10:11;32.20;;;29.53;;
568;SDS011;269;48.884;9.192;2022-08-19T15:12:40;31.50;;;28.70;;
568;SDS011;269;48.884;9.192;2022-08-19T15:15:08;33.33;;;30.63;;
568;SDS011;269;48.884;9.192;2022-08-19T15:17:40;32.43;;;29.73;;
568;SDS011;269;48.884;9.192;2022-08-19T15:20:09;34.00;;;31.00;;
568;SDS011;269;48.884;9.192;2022-08-19T15:22:37;32.67;;;29.87;;
568;SDS011;269;48.884;9.192;2022-08-19T15:25:06;33.20;;;30.50;;
568;SDS011;269;48.884;9.192;2022-08-19T15:27:35;31.17;;;28.53;;
568;SDS011;269;48.884;9.192;2022-08-19T15:30:04;30.50;;;28.03;;
568;SDS011;269;48.884;9.192;2022-08-19T15:32:33;30.80;;;28.40;;